createdAt,value
2023-03-29T02:16:53.870Z,6.06
2023-03-29T02:32:40.620Z,5.10
2023-03-29T03:37:29.785Z,6.86
2023-03-29T05:05:05.409Z,6.73
2023-03-29T05:22:02.737Z,6.90
2023-03-29T05:26:03.870Z,7.04
2023-03-29T05:30:03.707Z,6.98
2023-03-29T05:34:03.462Z,7.16
2023-03-29T05:38:03.885Z,7.29
2023-03-29T06:05:32.135Z,7.12
2023-03-29T06:09:32.222Z,7.15
2023-03-29T06:40:29.440Z,7.53
2023-03-29T06:44:30.036Z,7.66
2023-03-29T06:48:29.932Z,7.80
2023-03-29T06:52:29.745Z,8.10
2023-03-29T07:00:47.990Z,8.25
2023-03-29T07:04:49.024Z,8.15
2023-03-29T07:17:26.806Z,8.47
2023-03-29T07:28:39.342Z,8.70
2023-03-29T07:32:40.741Z,8.81
2023-03-29T07:36:40.547Z,8.99
2023-03-29T07:40:47.140Z,9.08
2023-03-29T07:44:40.821Z,9.01
2023-03-29T07:48:39.417Z,9.06
2023-03-29T07:52:39.825Z,9.34
2023-03-29T07:56:39.587Z,9.55
2023-03-29T08:00:39.131Z,9.70
2023-03-29T08:04:39.498Z,9.82
2023-03-29T08:08:39.798Z,9.92
2023-03-29T08:12:38.672Z,10.04
2023-03-29T08:16:38.712Z,9.87
2023-03-29T08:20:38.596Z,9.91
2023-03-29T08:29:01.529Z,9.99
2023-03-29T08:37:16.889Z,10.02
2023-03-29T08:41:19.502Z,10.06
2023-03-29T08:45:19.098Z,10.10
2023-03-29T08:49:32.190Z,10.19
2023-03-29T09:01:58.245Z,10.51
2023-03-29T09:05:58.931Z,10.44
2023-03-29T09:09:55.940Z,10.59
2023-03-29T09:13:56.068Z,10.67
2023-03-29T09:17:56.126Z,10.75
2023-03-29T09:21:56.114Z,10.50
2023-03-29T09:25:56.012Z,10.63
2023-03-29T09:29:55.609Z,10.65
2023-03-29T09:33:55.693Z,10.72
2023-03-29T10:41:39.563Z,10.54
2023-03-29T10:45:39.959Z,10.75
2023-03-29T10:49:40.222Z,10.94
2023-03-29T10:53:39.385Z,10.87
2023-03-29T11:12:27.096Z,11.30
2023-03-29T11:30:24.496Z,11.74
2023-03-29T11:38:45.194Z,12.25
2023-03-29T11:42:44.028Z,12.33
2023-03-29T12:17:02.344Z,12.28
2023-03-29T12:29:41.049Z,12.15
2023-03-29T12:33:39.964Z,12.21
2023-03-29T12:37:38.808Z,12.47
2023-03-29T12:41:38.785Z,11.85
2023-03-29T12:45:38.350Z,11.91
2023-03-29T12:49:38.662Z,12.22
2023-03-29T13:02:16.252Z,12.19
2023-03-29T13:06:22.412Z,12.35
2023-03-29T13:10:16.826Z,12.60
2023-03-29T13:14:17.130Z,12.56
2023-03-29T13:18:17.293Z,12.54
2023-03-29T13:22:16.918Z,12.41
